Terminal Aerodrome Forecast
Issued by NWS

Home | Current Version | Previous Version | Text Only | Print | Product List | Glossary On
Versions: 1 2 3 4 5 6 7 8 9 10 11 12 13 14 15 16 17 18 19 20 21 22 23 24 25 26 27 28 29
000
FTAK31 PANC 232100 AAB
TAFADQ
TAF AMD
PADQ 232100Z 2321/2418 08011KT P6SM -SHRA SCT015 OVC040
      TEMPO 2321/2324 BKN015
     FM240400 06016KT 5SM -RA BR BKN015 OVC025
     FM241600 12011KT P6SM -SHRA BKN010 OVC025=

USA.gov is the U.S. government's official web portal to all federal, state and local government web resources and services.